Terminal Aerodrome Forecast
Issued by NWS

Home | Current Version | Previous Version | Text Only | Print | Product List | Glossary On
Versions: 1 2 3 4 5 6 7 8 9 10 11 12 13 14 15 16 17 18 19 20 21 22 23 24 25 26 27 28 29 30 31 32 33 34 35 36 37 38 39 40
000
FTAK31 PANC 220540
TAFACD
TAF
PACD 220540Z 2206/2306 34015G20KT 6SM -SHSN OVC022
      TEMPO 2206/2210 5SM -SHSN BR SCT010 BKN015
     FM221800 34012KT 5SM -SHSN BKN006 OVC012=

USA.gov is the U.S. government's official web portal to all federal, state and local government web resources and services.